sensor_id;sensor_type;location;lat;lon;timestamp;P1;durP1;ratioP1;P2;durP2;ratioP2
4758;SDS011;2393;50.560;12.636;2022-12-07T00:01:21;7.93;;;5.30;;
4758;SDS011;2393;50.560;12.636;2022-12-07T00:03:51;8.65;;;5.43;;
4758;SDS011;2393;50.560;12.636;2022-12-07T00:06:24;6.05;;;4.38;;
4758;SDS011;2393;50.560;12.636;2022-12-07T00:08:52;8.20;;;4.20;;
4758;SDS011;2393;50.560;12.636;2022-12-07T00:11:21;11.15;;;5.30;;
4758;SDS011;2393;50.560;12.636;2022-12-07T00:13:51;11.13;;;5.57;;
4758;SDS011;2393;50.560;12.636;2022-12-07T00:16:21;6.63;;;4.32;;
4758;SDS011;2393;50.560;12.636;2022-12-07T00:18:50;7.78;;;4.35;;
4758;SDS011;2393;50.560;12.636;2022-12-07T00:21:19;9.25;;;5.75;;
4758;SDS011;2393;50.560;12.636;2022-12-07T00:23:50;5.88;;;4.28;;
4758;SDS011;2393;50.560;12.636;2022-12-07T00:26:19;8.77;;;5.57;;
4758;SDS011;2393;50.560;12.636;2022-12-07T00:28:50;5.68;;;5.10;;
4758;SDS011;2393;50.560;12.636;2022-12-07T00:31:19;8.07;;;5.25;;
4758;SDS011;2393;50.560;12.636;2022-12-07T00:33:49;6.93;;;4.20;;
4758;SDS011;2393;50.560;12.636;2022-12-07T00:36:18;7.95;;;4.75;;
4758;SDS011;2393;50.560;12.636;2022-12-07T00:38:54;7.63;;;4.30;;
4758;SDS011;2393;50.560;12.636;2022-12-07T00:41:22;7.20;;;4.90;;
4758;SDS011;2393;50.560;12.636;2022-12-07T00:43:52;8.82;;;5.28;;
4758;SDS011;2393;50.560;12.636;2022-12-07T00:46:21;9.30;;;4.70;;
4758;SDS011;2393;50.560;12.636;2022-12-07T00:48:50;5.70;;;4.30;;
4758;SDS011;2393;50.560;12.636;2022-12-07T00:51:21;7.60;;;5.10;;
4758;SDS011;2393;50.560;12.636;2022-12-07T00:53:50;6.53;;;4.88;;
4758;SDS011;2393;50.560;12.636;2022-12-07T00:56:21;7.82;;;4.00;;
4758;SDS011;2393;50.560;12.636;2022-12-07T00:58:51;7.60;;;5.03;;
4758;SDS011;2393;50.560;12.636;2022-12-07T01:01:20;6.47;;;4.05;;
4758;SDS011;2393;50.560;12.636;2022-12-07T01:03:48;9.48;;;4.88;;
4758;SDS011;2393;50.560;12.636;2022-12-07T01:06:16;6.78;;;3.78;;
4758;SDS011;2393;50.560;12.636;2022-12-07T01:08:46;9.07;;;3.90;;
4758;SDS011;2393;50.560;12.636;2022-12-07T01:11:15;5.10;;;3.72;;
4758;SDS011;2393;50.560;12.636;2022-12-07T01:13:48;5.15;;;3.92;;
4758;SDS011;2393;50.560;12.636;2022-12-07T01:16:17;9.68;;;4.40;;
4758;SDS011;2393;50.560;12.636;2022-12-07T01:18:47;7.30;;;4.90;;
4758;SDS011;2393;50.560;12.636;2022-12-07T01:21:18;6.50;;;4.13;;
4758;SDS011;2393;50.560;12.636;2022-12-07T01:23:47;4.70;;;4.05;;
4758;SDS011;2393;50.560;12.636;2022-12-07T01:26:17;7.10;;;4.22;;
4758;SDS011;2393;50.560;12.636;2022-12-07T01:28:47;4.57;;;3.83;;
4758;SDS011;2393;50.560;12.636;2022-12-07T01:31:17;7.05;;;4.40;;
4758;SDS011;2393;50.560;12.636;2022-12-07T01:33:51;5.45;;;3.53;;
4758;SDS011;2393;50.560;12.636;2022-12-07T01:36:22;6.72;;;3.90;;
4758;SDS011;2393;50.560;12.636;2022-12-07T01:38:53;12.43;;;3.42;;
4758;SDS011;2393;50.560;12.636;2022-12-07T01:41:23;6.05;;;2.92;;
4758;SDS011;2393;50.560;12.636;2022-12-07T01:44:15;5.00;;;3.53;;
4758;SDS011;2393;50.560;12.636;2022-12-07T01:46:51;5.40;;;3.75;;
4758;SDS011;2393;50.560;12.636;2022-12-07T01:49:22;4.68;;;3.15;;
4758;SDS011;2393;50.560;12.636;2022-12-07T01:51:57;3.28;;;2.83;;
4758;SDS011;2393;50.560;12.636;2022-12-07T01:54:29;3.22;;;2.92;;
4758;SDS011;2393;50.560;12.636;2022-12-07T01:57:02;4.63;;;2.83;;
4758;SDS011;2393;50.560;12.636;2022-12-07T01:59:34;4.00;;;3.08;;
4758;SDS011;2393;50.560;12.636;2022-12-07T02:02:04;7.53;;;3.22;;
4758;SDS011;2393;50.560;12.636;2022-12-07T02:04:40;2.30;;;2.10;;
4758;SDS011;2393;50.560;12.636;2022-12-07T02:07:08;6.75;;;3.10;;
4758;SDS011;2393;50.560;12.636;2022-12-07T02:09:37;3.90;;;2.65;;
4758;SDS011;2393;50.560;12.636;2022-12-07T02:12:05;4.78;;;3.05;;
4758;SDS011;2393;50.560;12.636;2022-12-07T02:14:34;11.73;;;2.80;;
4758;SDS011;2393;50.560;12.636;2022-12-07T02:17:05;4.75;;;3.35;;
4758;SDS011;2393;50.560;12.636;2022-12-07T02:19:53;3.85;;;3.13;;
4758;SDS011;2393;50.560;12.636;2022-12-07T02:22:54;4.03;;;3.47;;
4758;SDS011;2393;50.560;12.636;2022-12-07T02:25:41;3.88;;;3.15;;
4758;SDS011;2393;50.560;12.636;2022-12-07T02:28:25;4.95;;;3.30;;
4758;SDS011;2393;50.560;12.636;2022-12-07T02:30:58;2.67;;;2.45;;
4758;SDS011;2393;50.560;12.636;2022-12-07T02:33:33;4.25;;;2.70;;
4758;SDS011;2393;50.560;12.636;2022-12-07T02:36:04;3.58;;;3.17;;
4758;SDS011;2393;50.560;12.636;2022-12-07T02:38:37;2.97;;;2.22;;
4758;SDS011;2393;50.560;12.636;2022-12-07T02:41:10;8.90;;;2.67;;
4758;SDS011;2393;50.560;12.636;2022-12-07T02:43:41;2.53;;;2.22;;
4758;SDS011;2393;50.560;12.636;2022-12-07T02:46:15;4.13;;;3.20;;
4758;SDS011;2393;50.560;12.636;2022-12-07T02:48:48;3.10;;;2.15;;
4758;SDS011;2393;50.560;12.636;2022-12-07T02:51:17;2.35;;;2.25;;
4758;SDS011;2393;50.560;12.636;2022-12-07T02:53:45;3.88;;;1.85;;
4758;SDS011;2393;50.560;12.636;2022-12-07T02:56:16;1.88;;;1.77;;
4758;SDS011;2393;50.560;12.636;2022-12-07T02:59:01;2.05;;;1.90;;
4758;SDS011;2393;50.560;12.636;2022-12-07T03:01:41;3.53;;;2.53;;
4758;SDS011;2393;50.560;12.636;2022-12-07T03:04:19;3.00;;;2.40;;
4758;SDS011;2393;50.560;12.636;2022-12-07T03:07:00;2.00;;;1.83;;
4758;SDS011;2393;50.560;12.636;2022-12-07T03:09:38;4.00;;;2.25;;
4758;SDS011;2393;50.560;12.636;2022-12-07T03:12:12;4.60;;;2.50;;
4758;SDS011;2393;50.560;12.636;2022-12-07T03:14:47;2.13;;;1.90;;
4758;SDS011;2393;50.560;12.636;2022-12-07T03:17:24;3.15;;;2.03;;
4758;SDS011;2393;50.560;12.636;2022-12-07T03:19:57;2.35;;;2.00;;
4758;SDS011;2393;50.560;12.636;2022-12-07T03:22:27;1.88;;;1.70;;
4758;SDS011;2393;50.560;12.636;2022-12-07T03:25:00;3.33;;;2.22;;
4758;SDS011;2393;50.560;12.636;2022-12-07T03:27:34;1.92;;;1.55;;
4758;SDS011;2393;50.560;12.636;2022-12-07T03:30:07;1.77;;;1.67;;
4758;SDS011;2393;50.560;12.636;2022-12-07T03:32:39;3.60;;;1.98;;
4758;SDS011;2393;50.560;12.636;2022-12-07T03:35:12;4.40;;;1.98;;
4758;SDS011;2393;50.560;12.636;2022-12-07T03:37:46;2.45;;;2.08;;
4758;SDS011;2393;50.560;12.636;2022-12-07T03:40:20;1.20;;;1.20;;
4758;SDS011;2393;50.560;12.636;2022-12-07T03:42:53;6.50;;;2.78;;
4758;SDS011;2393;50.560;12.636;2022-12-07T03:45:23;1.90;;;1.63;;
4758;SDS011;2393;50.560;12.636;2022-12-07T03:48:00;1.42;;;1.33;;
4758;SDS011;2393;50.560;12.636;2022-12-07T03:50:35;3.50;;;1.67;;
4758;SDS011;2393;50.560;12.636;2022-12-07T03:53:11;3.22;;;1.92;;
4758;SDS011;2393;50.560;12.636;2022-12-07T03:55:42;6.80;;;2.20;;
4758;SDS011;2393;50.560;12.636;2022-12-07T03:58:15;5.10;;;1.83;;
4758;SDS011;2393;50.560;12.636;2022-12-07T04:00:46;4.93;;;3.25;;
4758;SDS011;2393;50.560;12.636;2022-12-07T04:03:17;1.50;;;1.42;;
4758;SDS011;2393;50.560;12.636;2022-12-07T04:05:45;1.58;;;1.48;;
4758;SDS011;2393;50.560;12.636;2022-12-07T04:08:13;2.75;;;2.10;;
4758;SDS011;2393;50.560;12.636;2022-12-07T04:10:42;2.20;;;2.00;;
4758;SDS011;2393;50.560;12.636;2022-12-07T04:13:10;2.05;;;1.83;;
4758;SDS011;2393;50.560;12.636;2022-12-07T04:15:38;2.40;;;2.20;;
4758;SDS011;2393;50.560;12.636;2022-12-07T04:18:06;3.10;;;2.03;;
4758;SDS011;2393;50.560;12.636;2022-12-07T04:20:35;3.60;;;1.90;;
4758;SDS011;2393;50.560;12.636;2022-12-07T04:23:03;2.20;;;1.90;;
4758;SDS011;2393;50.560;12.636;2022-12-07T04:25:31;1.70;;;1.60;;
4758;SDS011;2393;50.560;12.636;2022-12-07T04:27:59;3.55;;;2.30;;
4758;SDS011;2393;50.560;12.636;2022-12-07T04:30:27;2.63;;;1.88;;
4758;SDS011;2393;50.560;12.636;2022-12-07T04:32:56;2.47;;;1.70;;
4758;SDS011;2393;50.560;12.636;2022-12-07T04:35:24;3.15;;;2.00;;
4758;SDS011;2393;50.560;12.636;2022-12-07T04:37:53;3.10;;;2.88;;
4758;SDS011;2393;50.560;12.636;2022-12-07T04:40:21;2.40;;;2.20;;
4758;SDS011;2393;50.560;12.636;2022-12-07T04:42:49;2.10;;;1.40;;
4758;SDS011;2393;50.560;12.636;2022-12-07T04:45:17;2.20;;;2.10;;
4758;SDS011;2393;50.560;12.636;2022-12-07T04:47:45;4.15;;;2.65;;
4758;SDS011;2393;50.560;12.636;2022-12-07T04:50:13;5.35;;;2.47;;
4758;SDS011;2393;50.560;12.636;2022-12-07T04:52:41;4.60;;;2.47;;
4758;SDS011;2393;50.560;12.636;2022-12-07T04:55:11;2.67;;;2.42;;
4758;SDS011;2393;50.560;12.636;2022-12-07T04:57:39;3.58;;;2.45;;
4758;SDS011;2393;50.560;12.636;2022-12-07T05:00:07;2.28;;;2.08;;
4758;SDS011;2393;50.560;12.636;2022-12-07T05:02:36;2.85;;;2.10;;
4758;SDS011;2393;50.560;12.636;2022-12-07T05:05:04;2.47;;;2.28;;
4758;SDS011;2393;50.560;12.636;2022-12-07T05:07:33;2.92;;;2.10;;
4758;SDS011;2393;50.560;12.636;2022-12-07T05:10:01;2.55;;;2.35;;
4758;SDS011;2393;50.560;12.636;2022-12-07T05:12:31;3.47;;;2.42;;
4758;SDS011;2393;50.560;12.636;2022-12-07T05:14:59;3.22;;;2.42;;
4758;SDS011;2393;50.560;12.636;2022-12-07T05:17:27;2.25;;;2.10;;
4758;SDS011;2393;50.560;12.636;2022-12-07T05:19:55;2.70;;;2.47;;
4758;SDS011;2393;50.560;12.636;2022-12-07T05:22:23;3.97;;;2.90;;
4758;SDS011;2393;50.560;12.636;2022-12-07T05:24:54;2.10;;;1.92;;
4758;SDS011;2393;50.560;12.636;2022-12-07T05:27:22;2.25;;;2.10;;
4758;SDS011;2393;50.560;12.636;2022-12-07T05:29:52;5.10;;;2.40;;
4758;SDS011;2393;50.560;12.636;2022-12-07T05:32:20;2.38;;;2.28;;
4758;SDS011;2393;50.560;12.636;2022-12-07T05:34:48;4.30;;;2.45;;
4758;SDS011;2393;50.560;12.636;2022-12-07T05:37:16;3.47;;;2.10;;
4758;SDS011;2393;50.560;12.636;2022-12-07T05:39:44;5.85;;;2.90;;
4758;SDS011;2393;50.560;12.636;2022-12-07T05:42:12;2.35;;;2.15;;
4758;SDS011;2393;50.560;12.636;2022-12-07T05:44:41;3.15;;;2.83;;
4758;SDS011;2393;50.560;12.636;2022-12-07T05:47:11;13.50;;;2.92;;
4758;SDS011;2393;50.560;12.636;2022-12-07T05:49:41;3.30;;;2.95;;
4758;SDS011;2393;50.560;12.636;2022-12-07T05:52:09;4.22;;;3.28;;
4758;SDS011;2393;50.560;12.636;2022-12-07T05:54:37;3.85;;;3.20;;
4758;SDS011;2393;50.560;12.636;2022-12-07T05:57:05;4.35;;;2.75;;
4758;SDS011;2393;50.560;12.636;2022-12-07T05:59:33;3.00;;;2.55;;
4758;SDS011;2393;50.560;12.636;2022-12-07T06:02:01;5.72;;;4.32;;
4758;SDS011;2393;50.560;12.636;2022-12-07T06:04:34;3.10;;;2.78;;
4758;SDS011;2393;50.560;12.636;2022-12-07T06:07:03;6.25;;;3.83;;
4758;SDS011;2393;50.560;12.636;2022-12-07T06:09:32;5.45;;;3.75;;
4758;SDS011;2393;50.560;12.636;2022-12-07T06:12:01;4.15;;;3.60;;
4758;SDS011;2393;50.560;12.636;2022-12-07T06:14:47;3.75;;;3.45;;
4758;SDS011;2393;50.560;12.636;2022-12-07T06:17:15;4.82;;;2.88;;
4758;SDS011;2393;50.560;12.636;2022-12-07T06:19:45;3.95;;;3.65;;
4758;SDS011;2393;50.560;12.636;2022-12-07T06:22:13;7.57;;;3.10;;
4758;SDS011;2393;50.560;12.636;2022-12-07T06:24:42;3.60;;;3.05;;
4758;SDS011;2393;50.560;12.636;2022-12-07T06:27:10;7.85;;;4.25;;
4758;SDS011;2393;50.560;12.636;2022-12-07T06:29:38;4.72;;;3.75;;
4758;SDS011;2393;50.560;12.636;2022-12-07T06:32:06;5.30;;;3.95;;
4758;SDS011;2393;50.560;12.636;2022-12-07T06:34:35;4.80;;;3.67;;
4758;SDS011;2393;50.560;12.636;2022-12-07T06:37:04;6.55;;;3.53;;
4758;SDS011;2393;50.560;12.636;2022-12-07T06:39:32;4.35;;;3.92;;
4758;SDS011;2393;50.560;12.636;2022-12-07T06:42:00;5.80;;;3.97;;
4758;SDS011;2393;50.560;12.636;2022-12-07T06:44:28;4.57;;;3.70;;
4758;SDS011;2393;50.560;12.636;2022-12-07T06:46:56;6.28;;;4.20;;
4758;SDS011;2393;50.560;12.636;2022-12-07T06:49:44;5.50;;;4.70;;
4758;SDS011;2393;50.560;12.636;2022-12-07T06:52:14;7.35;;;4.90;;
4758;SDS011;2393;50.560;12.636;2022-12-07T06:54:42;7.35;;;3.80;;
4758;SDS011;2393;50.560;12.636;2022-12-07T06:57:11;3.13;;;2.83;;
4758;SDS011;2393;50.560;12.636;2022-12-07T06:59:39;4.28;;;3.65;;
4758;SDS011;2393;50.560;12.636;2022-12-07T07:02:07;6.13;;;3.30;;
4758;SDS011;2393;50.560;12.636;2022-12-07T07:04:36;4.40;;;3.80;;
4758;SDS011;2393;50.560;12.636;2022-12-07T07:07:04;4.95;;;4.05;;
4758;SDS011;2393;50.560;12.636;2022-12-07T07:09:33;5.15;;;3.22;;
4758;SDS011;2393;50.560;12.636;2022-12-07T07:12:02;4.68;;;3.58;;
4758;SDS011;2393;50.560;12.636;2022-12-07T07:14:30;6.10;;;4.88;;
4758;SDS011;2393;50.560;12.636;2022-12-07T07:16:59;5.22;;;4.10;;
4758;SDS011;2393;50.560;12.636;2022-12-07T07:19:27;7.63;;;3.83;;
4758;SDS011;2393;50.560;12.636;2022-12-07T07:21:55;4.43;;;3.53;;
4758;SDS011;2393;50.560;12.636;2022-12-07T07:24:23;7.30;;;4.18;;
4758;SDS011;2393;50.560;12.636;2022-12-07T07:26:52;5.35;;;4.05;;
4758;SDS011;2393;50.560;12.636;2022-12-07T07:29:20;4.95;;;3.70;;
4758;SDS011;2393;50.560;12.636;2022-12-07T07:31:48;5.00;;;3.55;;
4758;SDS011;2393;50.560;12.636;2022-12-07T07:34:16;5.25;;;4.03;;
4758;SDS011;2393;50.560;12.636;2022-12-07T07:36:44;5.47;;;4.28;;
4758;SDS011;2393;50.560;12.636;2022-12-07T07:39:13;4.38;;;3.03;;
4758;SDS011;2393;50.560;12.636;2022-12-07T07:41:42;3.85;;;3.47;;
4758;SDS011;2393;50.560;12.636;2022-12-07T07:44:14;3.80;;;2.92;;
4758;SDS011;2393;50.560;12.636;2022-12-07T07:46:42;5.75;;;4.22;;
4758;SDS011;2393;50.560;12.636;2022-12-07T07:49:10;5.35;;;3.90;;
4758;SDS011;2393;50.560;12.636;2022-12-07T07:51:38;4.03;;;3.65;;
4758;SDS011;2393;50.560;12.636;2022-12-07T07:54:06;5.20;;;3.95;;
4758;SDS011;2393;50.560;12.636;2022-12-07T07:56:34;3.70;;;3.15;;
4758;SDS011;2393;50.560;12.636;2022-12-07T07:59:02;4.40;;;3.20;;
4758;SDS011;2393;50.560;12.636;2022-12-07T08:01:32;4.75;;;3.80;;
4758;SDS011;2393;50.560;12.636;2022-12-07T08:04:00;5.57;;;3.60;;
4758;SDS011;2393;50.560;12.636;2022-12-07T08:06:28;4.97;;;3.72;;
4758;SDS011;2393;50.560;12.636;2022-12-07T08:08:58;3.60;;;3.30;;
4758;SDS011;2393;50.560;12.636;2022-12-07T08:11:26;5.15;;;3.20;;
4758;SDS011;2393;50.560;12.636;2022-12-07T08:13:54;3.65;;;2.85;;
4758;SDS011;2393;50.560;12.636;2022-12-07T08:16:22;3.40;;;3.00;;
4758;SDS011;2393;50.560;12.636;2022-12-07T08:18:52;3.22;;;2.63;;
4758;SDS011;2393;50.560;12.636;2022-12-07T08:21:20;2.60;;;2.50;;
4758;SDS011;2393;50.560;12.636;2022-12-07T08:23:48;2.22;;;2.08;;
4758;SDS011;2393;50.560;12.636;2022-12-07T08:26:16;3.72;;;2.70;;
4758;SDS011;2393;50.560;12.636;2022-12-07T08:28:44;4.18;;;2.85;;
4758;SDS011;2393;50.560;12.636;2022-12-07T08:31:14;5.97;;;3.60;;
4758;SDS011;2393;50.560;12.636;2022-12-07T08:33:44;4.70;;;3.45;;
4758;SDS011;2393;50.560;12.636;2022-12-07T08:36:14;4.03;;;3.53;;
4758;SDS011;2393;50.560;12.636;2022-12-07T08:38:44;5.22;;;3.50;;
4758;SDS011;2393;50.560;12.636;2022-12-07T08:41:32;5.40;;;3.75;;
4758;SDS011;2393;50.560;12.636;2022-12-07T08:44:00;3.70;;;2.95;;
4758;SDS011;2393;50.560;12.636;2022-12-07T08:46:30;5.35;;;3.33;;
4758;SDS011;2393;50.560;12.636;2022-12-07T08:49:03;4.82;;;3.60;;
4758;SDS011;2393;50.560;12.636;2022-12-07T08:51:37;6.10;;;3.30;;
4758;SDS011;2393;50.560;12.636;2022-12-07T08:54:07;7.00;;;3.60;;
4758;SDS011;2393;50.560;12.636;2022-12-07T08:56:36;4.18;;;3.20;;
4758;SDS011;2393;50.560;12.636;2022-12-07T08:59:05;3.15;;;2.85;;
4758;SDS011;2393;50.560;12.636;2022-12-07T09:01:34;6.93;;;3.83;;
4758;SDS011;2393;50.560;12.636;2022-12-07T09:04:02;3.70;;;2.90;;
4758;SDS011;2393;50.560;12.636;2022-12-07T09:06:30;5.57;;;4.03;;
4758;SDS011;2393;50.560;12.636;2022-12-07T09:09:00;3.65;;;2.92;;
4758;SDS011;2393;50.560;12.636;2022-12-07T09:11:30;3.80;;;2.72;;
4758;SDS011;2393;50.560;12.636;2022-12-07T09:13:58;6.53;;;2.45;;
4758;SDS011;2393;50.560;12.636;2022-12-07T09:16:26;15.43;;;3.60;;
4758;SDS011;2393;50.560;12.636;2022-12-07T09:18:54;3.13;;;2.83;;
4758;SDS011;2393;50.560;12.636;2022-12-07T09:21:22;2.47;;;2.30;;
4758;SDS011;2393;50.560;12.636;2022-12-07T09:23:50;3.00;;;2.25;;
4758;SDS011;2393;50.560;12.636;2022-12-07T09:26:20;4.18;;;2.70;;
4758;SDS011;2393;50.560;12.636;2022-12-07T09:28:48;2.45;;;2.28;;
4758;SDS011;2393;50.560;12.636;2022-12-07T09:31:16;2.92;;;2.50;;
4758;SDS011;2393;50.560;12.636;2022-12-07T09:33:52;3.20;;;2.65;;
4758;SDS011;2393;50.560;12.636;2022-12-07T09:36:21;4.47;;;2.88;;
4758;SDS011;2393;50.560;12.636;2022-12-07T09:38:50;9.88;;;2.70;;
4758;SDS011;2393;50.560;12.636;2022-12-07T09:41:19;10.73;;;3.45;;
4758;SDS011;2393;50.560;12.636;2022-12-07T09:43:48;2.70;;;2.50;;
4758;SDS011;2393;50.560;12.636;2022-12-07T09:46:17;2.95;;;2.65;;
4758;SDS011;2393;50.560;12.636;2022-12-07T09:48:48;4.40;;;2.70;;
4758;SDS011;2393;50.560;12.636;2022-12-07T09:51:18;9.07;;;2.55;;
4758;SDS011;2393;50.560;12.636;2022-12-07T09:53:51;4.63;;;3.53;;
4758;SDS011;2393;50.560;12.636;2022-12-07T09:56:21;3.08;;;2.80;;
4758;SDS011;2393;50.560;12.636;2022-12-07T09:58:58;2.75;;;2.42;;
4758;SDS011;2393;50.560;12.636;2022-12-07T10:01:28;5.38;;;2.83;;
4758;SDS011;2393;50.560;12.636;2022-12-07T10:04:01;4.70;;;3.38;;
4758;SDS011;2393;50.560;12.636;2022-12-07T10:06:36;4.30;;;2.90;;
4758;SDS011;2393;50.560;12.636;2022-12-07T10:09:08;5.75;;;3.70;;
4758;SDS011;2393;50.560;12.636;2022-12-07T10:14:31;4.45;;;3.30;;
4758;SDS011;2393;50.560;12.636;2022-12-07T10:17:35;5.93;;;3.35;;
4758;SDS011;2393;50.560;12.636;2022-12-07T10:20:12;3.10;;;2.53;;
4758;SDS011;2393;50.560;12.636;2022-12-07T10:22:53;3.85;;;3.20;;
4758;SDS011;2393;50.560;12.636;2022-12-07T10:25:27;2.95;;;2.53;;
4758;SDS011;2393;50.560;12.636;2022-12-07T10:28:08;5.07;;;2.90;;
4758;SDS011;2393;50.560;12.636;2022-12-07T10:30:48;6.18;;;2.53;;
4758;SDS011;2393;50.560;12.636;2022-12-07T10:33:33;2.72;;;2.35;;
4758;SDS011;2393;50.560;12.636;2022-12-07T10:36:15;4.28;;;2.40;;
4758;SDS011;2393;50.560;12.636;2022-12-07T10:38:47;3.88;;;2.90;;
4758;SDS011;2393;50.560;12.636;2022-12-07T10:41:17;2.85;;;2.60;;
4758;SDS011;2393;50.560;12.636;2022-12-07T10:43:48;4.63;;;2.78;;
4758;SDS011;2393;50.560;12.636;2022-12-07T10:49:27;2.78;;;2.50;;
4758;SDS011;2393;50.560;12.636;2022-12-07T10:52:14;3.88;;;2.30;;
4758;SDS011;2393;50.560;12.636;2022-12-07T10:54:51;2.92;;;2.53;;
4758;SDS011;2393;50.560;12.636;2022-12-07T10:57:35;3.45;;;2.75;;
4758;SDS011;2393;50.560;12.636;2022-12-07T11:00:15;8.00;;;2.80;;
4758;SDS011;2393;50.560;12.636;2022-12-07T11:02:52;3.58;;;2.88;;
4758;SDS011;2393;50.560;12.636;2022-12-07T11:05:42;2.80;;;2.25;;
4758;SDS011;2393;50.560;12.636;2022-12-07T11:08:17;2.78;;;2.35;;
4758;SDS011;2393;50.560;12.636;2022-12-07T11:10:53;3.95;;;2.70;;
4758;SDS011;2393;50.560;12.636;2022-12-07T11:13:25;5.38;;;2.88;;
4758;SDS011;2393;50.560;12.636;2022-12-07T11:19:09;3.05;;;2.30;;
4758;SDS011;2393;50.560;12.636;2022-12-07T11:21:55;2.67;;;2.47;;
4758;SDS011;2393;50.560;12.636;2022-12-07T11:24:26;4.78;;;2.30;;
4758;SDS011;2393;50.560;12.636;2022-12-07T11:27:06;2.53;;;1.75;;
4758;SDS011;2393;50.560;12.636;2022-12-07T11:29:47;3.63;;;1.67;;
4758;SDS011;2393;50.560;12.636;2022-12-07T11:32:26;1.75;;;1.65;;
4758;SDS011;2393;50.560;12.636;2022-12-07T11:35:08;1.48;;;1.45;;
4758;SDS011;2393;50.560;12.636;2022-12-07T11:37:46;1.42;;;1.23;;
4758;SDS011;2393;50.560;12.636;2022-12-07T11:40:17;1.63;;;1.52;;
4758;SDS011;2393;50.560;12.636;2022-12-07T11:42:50;3.72;;;1.60;;
4758;SDS011;2393;50.560;12.636;2022-12-07T11:45:24;3.10;;;2.20;;
4758;SDS011;2393;50.560;12.636;2022-12-07T11:47:57;3.03;;;2.72;;
4758;SDS011;2393;50.560;12.636;2022-12-07T11:50:30;1.70;;;1.30;;
4758;SDS011;2393;50.560;12.636;2022-12-07T11:53:02;1.98;;;1.88;;
4758;SDS011;2393;50.560;12.636;2022-12-07T11:55:42;2.70;;;2.50;;
4758;SDS011;2393;50.560;12.636;2022-12-07T11:58:19;3.72;;;1.73;;
4758;SDS011;2393;50.560;12.636;2022-12-07T12:01:13;5.60;;;2.33;;
4758;SDS011;2393;50.560;12.636;2022-12-07T12:03:51;1.75;;;1.65;;
4758;SDS011;2393;50.560;12.636;2022-12-07T12:06:21;1.77;;;1.75;;
4758;SDS011;2393;50.560;12.636;2022-12-07T12:09:11;1.73;;;1.63;;
4758;SDS011;2393;50.560;12.636;2022-12-07T12:12:27;4.95;;;3.20;;
4758;SDS011;2393;50.560;12.636;2022-12-07T12:15:51;9.00;;;5.72;;
4758;SDS011;2393;50.560;12.636;2022-12-07T12:18:52;3.65;;;2.70;;
4758;SDS011;2393;50.560;12.636;2022-12-07T12:21:53;8.00;;;4.18;;
4758;SDS011;2393;50.560;12.636;2022-12-07T12:24:43;5.05;;;3.42;;
4758;SDS011;2393;50.560;12.636;2022-12-07T12:27:34;16.05;;;7.50;;
4758;SDS011;2393;50.560;12.636;2022-12-07T12:30:29;13.13;;;5.05;;
4758;SDS011;2393;50.560;12.636;2022-12-07T12:33:20;2.15;;;1.95;;
4758;SDS011;2393;50.560;12.636;2022-12-07T12:36:23;8.23;;;1.75;;
4758;SDS011;2393;50.560;12.636;2022-12-07T12:39:11;1.83;;;1.63;;
4758;SDS011;2393;50.560;12.636;2022-12-07T12:42:00;6.78;;;4.45;;
4758;SDS011;2393;50.560;12.636;2022-12-07T12:45:02;4.55;;;2.88;;
4758;SDS011;2393;50.560;12.636;2022-12-07T12:54:25;1.55;;;1.17;;
4758;SDS011;2393;50.560;12.636;2022-12-07T12:57:15;4.25;;;1.67;;
4758;SDS011;2393;50.560;12.636;2022-12-07T13:00:15;4.32;;;1.63;;
4758;SDS011;2393;50.560;12.636;2022-12-07T13:03:03;2.65;;;2.45;;
4758;SDS011;2393;50.560;12.636;2022-12-07T13:08:48;5.65;;;1.58;;
4758;SDS011;2393;50.560;12.636;2022-12-07T13:11:17;3.45;;;2.42;;
4758;SDS011;2393;50.560;12.636;2022-12-07T13:13:47;2.30;;;1.95;;
4758;SDS011;2393;50.560;12.636;2022-12-07T13:16:39;3.20;;;2.25;;
4758;SDS011;2393;50.560;12.636;2022-12-07T13:22:39;4.20;;;2.40;;
4758;SDS011;2393;50.560;12.636;2022-12-07T13:25:12;2.75;;;2.55;;
4758;SDS011;2393;50.560;12.636;2022-12-07T13:27:50;2.30;;;1.77;;
4758;SDS011;2393;50.560;12.636;2022-12-07T13:30:22;3.40;;;2.28;;
4758;SDS011;2393;50.560;12.636;2022-12-07T13:32:52;1.98;;;1.88;;
4758;SDS011;2393;50.560;12.636;2022-12-07T13:35:28;4.07;;;1.80;;
4758;SDS011;2393;50.560;12.636;2022-12-07T13:37:57;1.83;;;1.73;;
4758;SDS011;2393;50.560;12.636;2022-12-07T13:40:27;2.58;;;2.33;;
4758;SDS011;2393;50.560;12.636;2022-12-07T13:42:58;2.65;;;1.77;;
4758;SDS011;2393;50.560;12.636;2022-12-07T13:45:28;2.70;;;1.80;;
4758;SDS011;2393;50.560;12.636;2022-12-07T13:48:18;3.17;;;1.65;;
4758;SDS011;2393;50.560;12.636;2022-12-07T13:50:53;1.35;;;1.20;;
4758;SDS011;2393;50.560;12.636;2022-12-07T13:53:22;2.03;;;1.92;;
4758;SDS011;2393;50.560;12.636;2022-12-07T13:55:52;2.85;;;2.65;;
4758;SDS011;2393;50.560;12.636;2022-12-07T13:58:20;1.85;;;1.75;;
4758;SDS011;2393;50.560;12.636;2022-12-07T14:00:49;3.25;;;2.78;;
4758;SDS011;2393;50.560;12.636;2022-12-07T14:03:28;5.28;;;1.25;;
4758;SDS011;2393;50.560;12.636;2022-12-07T14:06:06;36.33;;;21.13;;
4758;SDS011;2393;50.560;12.636;2022-12-07T14:08:42;40.15;;;18.92;;
4758;SDS011;2393;50.560;12.636;2022-12-07T14:11:13;10.00;;;7.95;;
4758;SDS011;2393;50.560;12.636;2022-12-07T14:13:47;3.15;;;1.92;;
4758;SDS011;2393;50.560;12.636;2022-12-07T14:16:23;1.70;;;1.60;;
4758;SDS011;2393;50.560;12.636;2022-12-07T14:18:55;3.88;;;3.55;;
4758;SDS011;2393;50.560;12.636;2022-12-07T14:21:24;7.53;;;1.50;;
4758;SDS011;2393;50.560;12.636;2022-12-07T14:26:48;1.33;;;1.15;;
4758;SDS011;2393;50.560;12.636;2022-12-07T14:32:14;2.85;;;1.15;;
4758;SDS011;2393;50.560;12.636;2022-12-07T14:34:56;4.65;;;1.30;;
4758;SDS011;2393;50.560;12.636;2022-12-07T14:37:27;3.17;;;1.17;;
4758;SDS011;2393;50.560;12.636;2022-12-07T14:39:56;3.03;;;2.72;;
4758;SDS011;2393;50.560;12.636;2022-12-07T14:42:26;3.28;;;2.97;;
4758;SDS011;2393;50.560;12.636;2022-12-07T14:44:57;1.40;;;1.30;;
4758;SDS011;2393;50.560;12.636;2022-12-07T14:47:26;2.33;;;2.20;;
4758;SDS011;2393;50.560;12.636;2022-12-07T14:50:15;3.53;;;3.22;;
4758;SDS011;2393;50.560;12.636;2022-12-07T14:52:45;3.58;;;3.20;;
4758;SDS011;2393;50.560;12.636;2022-12-07T14:55:36;2.55;;;1.88;;
4758;SDS011;2393;50.560;12.636;2022-12-07T14:58:07;1.65;;;1.65;;
4758;SDS011;2393;50.560;12.636;2022-12-07T15:00:40;2.88;;;1.00;;
4758;SDS011;2393;50.560;12.636;2022-12-07T15:03:09;0.93;;;0.93;;
4758;SDS011;2393;50.560;12.636;2022-12-07T15:05:39;1.35;;;1.25;;
4758;SDS011;2393;50.560;12.636;2022-12-07T15:08:08;1.38;;;1.27;;
4758;SDS011;2393;50.560;12.636;2022-12-07T15:10:36;1.80;;;1.70;;
4758;SDS011;2393;50.560;12.636;2022-12-07T15:13:06;3.80;;;1.45;;
4758;SDS011;2393;50.560;12.636;2022-12-07T15:15:53;1.63;;;1.52;;
4758;SDS011;2393;50.560;12.636;2022-12-07T15:18:22;1.70;;;1.60;;
4758;SDS011;2393;50.560;12.636;2022-12-07T15:20:51;5.57;;;1.85;;
4758;SDS011;2393;50.560;12.636;2022-12-07T15:23:19;3.88;;;2.05;;
4758;SDS011;2393;50.560;12.636;2022-12-07T15:25:48;3.00;;;2.55;;
4758;SDS011;2393;50.560;12.636;2022-12-07T15:28:17;3.38;;;2.85;;
4758;SDS011;2393;50.560;12.636;2022-12-07T15:30:45;10.23;;;5.60;;
4758;SDS011;2393;50.560;12.636;2022-12-07T15:33:13;1.85;;;1.50;;
4758;SDS011;2393;50.560;12.636;2022-12-07T15:35:42;5.18;;;3.53;;
4758;SDS011;2393;50.560;12.636;2022-12-07T15:38:11;2.78;;;2.08;;
4758;SDS011;2393;50.560;12.636;2022-12-07T15:40:39;2.55;;;2.35;;
4758;SDS011;2393;50.560;12.636;2022-12-07T15:43:08;4.15;;;2.65;;
4758;SDS011;2393;50.560;12.636;2022-12-07T15:45:58;4.00;;;2.67;;
4758;SDS011;2393;50.560;12.636;2022-12-07T15:48:25;4.97;;;2.13;;
4758;SDS011;2393;50.560;12.636;2022-12-07T15:51:01;3.10;;;2.10;;
4758;SDS011;2393;50.560;12.636;2022-12-07T15:53:29;1.90;;;1.80;;
4758;SDS011;2393;50.560;12.636;2022-12-07T15:55:57;2.05;;;1.95;;
4758;SDS011;2393;50.560;12.636;2022-12-07T15:58:25;5.10;;;2.38;;
4758;SDS011;2393;50.560;12.636;2022-12-07T16:00:54;5.57;;;3.83;;
4758;SDS011;2393;50.560;12.636;2022-12-07T16:03:23;3.63;;;2.08;;